Terminal Aerodrome Forecast
Issued by NWS

Home | Current Version | Previous Version | Graphics & Text | Print | Product List | Glossary On
Versions: 1 2 3 4 5 6 7 8 9 10 11 12 13 14 15 16 17 18 19
000
FTUS43 KIWX 262000 AAA
TAFSBN
TAF AMD
KSBN 262011Z 2620/2718 18005KT P6SM OVC018
     FM262300 25008KT P6SM BKN025
      TEMPO 2703/2707 5SM TSRA OVC020CB
     FM270800 22005KT 4SM BR SCT015 OVC100=

USA.gov is the U.S. government's official web portal to all federal, state and local government web resources and services.